createdAt,value
2018-12-18T00:00:20.076Z,1010.56
2018-12-18T00:01:20.066Z,1010.55
2018-12-18T00:02:20.058Z,1010.55
2018-12-18T00:03:20.045Z,1010.53
2018-12-18T00:04:20.034Z,1010.47
2018-12-18T00:05:20.023Z,1010.51
2018-12-18T00:06:20.012Z,1010.52
2018-12-18T00:07:20.003Z,1010.54
2018-12-18T00:08:19.992Z,1010.45
2018-12-18T00:09:19.978Z,1010.46
2018-12-18T00:10:19.971Z,1010.45
2018-12-18T00:11:19.963Z,1010.44
2018-12-18T00:12:19.949Z,1010.47
2018-12-18T00:13:19.935Z,1010.47
2018-12-18T00:14:20.027Z,1010.40
2018-12-18T00:15:19.919Z,1010.45
2018-12-18T00:16:19.905Z,1010.41
2018-12-18T00:17:19.893Z,1010.42
2018-12-18T00:18:19.881Z,1010.44
2018-12-18T00:19:19.872Z,1010.46
2018-12-18T00:20:19.858Z,1010.46
2018-12-18T00:21:19.848Z,1010.41
2018-12-18T00:22:19.839Z,1010.49
2018-12-18T00:23:19.826Z,1010.41
2018-12-18T00:24:19.819Z,1010.42
2018-12-18T00:25:19.807Z,1010.41
2018-12-18T00:26:19.796Z,1010.45
2018-12-18T00:27:19.785Z,1010.46
2018-12-18T00:28:19.773Z,1010.42
2018-12-18T00:29:19.763Z,1010.42
2018-12-18T00:30:19.754Z,1010.39
2018-12-18T00:31:19.742Z,1010.40
2018-12-18T00:32:19.730Z,1010.43
2018-12-18T00:33:19.721Z,1010.41
2018-12-18T00:34:19.710Z,1010.42
2018-12-18T00:35:19.703Z,1010.49
2018-12-18T00:36:19.689Z,1010.43
2018-12-18T00:37:19.678Z,1010.46
2018-12-18T00:38:19.669Z,1010.43
2018-12-18T00:39:19.655Z,1010.43
2018-12-18T00:40:19.644Z,1010.36
2018-12-18T00:41:19.637Z,1010.35
2018-12-18T00:42:19.622Z,1010.34
2018-12-18T00:43:19.612Z,1010.36
2018-12-18T00:44:19.603Z,1010.37
2018-12-18T00:45:19.591Z,1010.38
2018-12-18T00:46:19.581Z,1010.41
2018-12-18T00:47:19.569Z,1010.35
2018-12-18T00:48:19.560Z,1010.40
2018-12-18T00:49:19.550Z,1010.35
2018-12-18T00:50:19.536Z,1010.38
2018-12-18T00:51:19.525Z,1010.36
2018-12-18T00:52:19.514Z,1010.33
2018-12-18T00:53:19.507Z,1010.29
2018-12-18T00:54:19.495Z,1010.29
2018-12-18T00:55:19.482Z,1010.25
2018-12-18T00:56:19.473Z,1010.22
2018-12-18T00:57:19.465Z,1010.30
2018-12-18T00:58:19.450Z,1010.28
2018-12-18T00:59:19.441Z,1010.29
2018-12-18T01:00:19.429Z,1010.29
2018-12-18T01:01:19.497Z,1010.35
2018-12-18T01:02:19.408Z,1010.32
2018-12-18T01:03:19.395Z,1010.33
2018-12-18T01:04:19.390Z,1010.29
2018-12-18T01:05:19.377Z,1010.31
2018-12-18T01:06:19.365Z,1010.29
2018-12-18T01:07:19.354Z,1010.29
2018-12-18T01:08:19.347Z,1010.24
2018-12-18T01:09:19.331Z,1010.27
2018-12-18T01:10:19.322Z,1010.26
2018-12-18T01:11:19.310Z,1010.28
2018-12-18T01:12:19.301Z,1010.26
2018-12-18T01:13:19.293Z,1010.29
2018-12-18T01:14:19.277Z,1010.26
2018-12-18T01:15:19.268Z,1010.25
2018-12-18T01:16:19.256Z,1010.28
2018-12-18T01:17:19.245Z,1010.28
2018-12-18T01:18:19.236Z,1010.26
2018-12-18T01:19:19.225Z,1010.26
2018-12-18T01:20:19.214Z,1010.26
2018-12-18T01:21:19.205Z,1010.26
2018-12-18T01:22:19.194Z,1010.28
2018-12-18T01:23:19.183Z,1010.23
2018-12-18T01:24:19.171Z,1010.31
2018-12-18T01:25:19.171Z,1010.25
2018-12-18T01:26:19.152Z,1010.28
2018-12-18T01:27:19.141Z,1010.31
2018-12-18T01:28:19.128Z,1010.36
2018-12-18T01:29:19.119Z,1010.35
2018-12-18T01:30:19.109Z,1010.40
2018-12-18T01:31:19.098Z,1010.40
2018-12-18T01:32:19.087Z,1010.47
2018-12-18T01:33:19.077Z,1010.41
2018-12-18T01:34:19.066Z,1010.46
2018-12-18T01:35:19.056Z,1010.45
2018-12-18T01:36:19.044Z,1010.42
2018-12-18T01:37:19.032Z,1010.44
2018-12-18T01:38:19.024Z,1010.45
2018-12-18T01:39:19.014Z,1010.41
2018-12-18T01:40:19.004Z,1010.43
2018-12-18T01:41:18.989Z,1010.43
2018-12-18T01:42:18.979Z,1010.38
2018-12-18T01:43:18.968Z,1010.44
2018-12-18T01:44:19.057Z,1010.45
2018-12-18T01:45:18.948Z,1010.47
2018-12-18T01:46:18.936Z,1010.41
2018-12-18T01:47:18.925Z,1010.41
2018-12-18T01:48:18.917Z,1010.41
2018-12-18T01:49:18.921Z,1010.40
2018-12-18T01:50:18.914Z,1010.43
2018-12-18T01:51:18.882Z,1010.41
2018-12-18T01:52:18.874Z,1010.43
2018-12-18T01:53:18.862Z,1010.39
2018-12-18T01:54:18.852Z,1010.41
2018-12-18T01:55:18.840Z,1010.41
2018-12-18T01:56:18.830Z,1010.38
2018-12-18T01:57:18.821Z,1010.39
2018-12-18T01:58:18.809Z,1010.42
2018-12-18T01:59:18.802Z,1010.44
2018-12-18T02:00:18.785Z,1010.45
2018-12-18T02:01:18.777Z,1010.49
2018-12-18T02:02:18.764Z,1010.46
2018-12-18T02:03:18.754Z,1010.41
2018-12-18T02:04:18.745Z,1010.36
2018-12-18T02:05:18.736Z,1010.39
2018-12-18T02:06:18.725Z,1010.41
2018-12-18T02:07:18.710Z,1010.35
2018-12-18T02:08:18.719Z,1010.37
2018-12-18T02:09:18.691Z,1010.35
2018-12-18T02:10:18.679Z,1010.31
2018-12-18T02:11:18.669Z,1010.37
2018-12-18T02:12:18.658Z,1010.29
2018-12-18T02:13:18.646Z,1010.29
2018-12-18T02:14:18.636Z,1010.27
2018-12-18T02:15:18.627Z,1010.30
2018-12-18T02:16:18.615Z,1010.29
2018-12-18T02:17:18.604Z,1010.28
2018-12-18T02:18:18.593Z,1010.32
2018-12-18T02:19:18.584Z,1010.26
2018-12-18T02:20:18.571Z,1010.25
2018-12-18T02:21:18.563Z,1010.27
2018-12-18T02:22:18.614Z,1010.26
2018-12-18T02:23:18.548Z,1010.17
2018-12-18T02:24:18.528Z,1010.21
2018-12-18T02:25:18.517Z,1010.19
2018-12-18T02:26:18.508Z,1010.21
2018-12-18T02:27:18.498Z,1010.19
2018-12-18T02:28:18.486Z,1010.27
2018-12-18T02:29:18.474Z,1010.28
2018-12-18T02:30:18.464Z,1010.27
2018-12-18T02:31:18.453Z,1010.26
2018-12-18T02:32:18.443Z,1010.26
2018-12-18T02:33:18.430Z,1010.28
2018-12-18T02:34:18.420Z,1010.26
2018-12-18T02:35:18.416Z,1010.25
2018-12-18T02:36:18.401Z,1010.27
2018-12-18T02:37:18.388Z,1010.27
2018-12-18T02:38:18.380Z,1010.23
2018-12-18T02:39:18.367Z,1010.24
2018-12-18T02:40:18.360Z,1010.27
2018-12-18T02:41:18.346Z,1010.28
2018-12-18T02:42:18.335Z,1010.27
2018-12-18T02:43:18.323Z,1010.30
2018-12-18T02:44:18.313Z,1010.32
2018-12-18T02:45:18.314Z,1010.30
2018-12-18T02:46:18.293Z,1010.28
2018-12-18T02:47:18.280Z,1010.35
2018-12-18T02:48:18.272Z,1010.34
2018-12-18T02:49:18.259Z,1010.34
2018-12-18T02:50:18.257Z,1010.34
2018-12-18T02:51:18.244Z,1010.39
2018-12-18T02:52:18.227Z,1010.40
2018-12-18T02:53:18.216Z,1010.39
2018-12-18T02:54:18.209Z,1010.45
2018-12-18T02:55:18.194Z,1010.48
2018-12-18T02:56:18.184Z,1010.50
2018-12-18T02:57:18.175Z,1010.47
2018-12-18T02:58:18.167Z,1010.46
2018-12-18T02:59:18.151Z,1010.50
2018-12-18T03:00:18.143Z,1010.49
2018-12-18T03:01:18.129Z,1010.49
2018-12-18T03:02:18.121Z,1010.51
2018-12-18T03:03:18.113Z,1010.53
2018-12-18T03:04:21.647Z,1010.56
2018-12-18T03:05:18.088Z,1010.59
2018-12-18T03:06:18.079Z,1010.54
2018-12-18T03:07:18.066Z,1010.51
2018-12-18T03:08:18.056Z,1010.53
2018-12-18T03:09:18.053Z,1010.54
2018-12-18T03:10:18.036Z,1010.54
2018-12-18T03:11:18.024Z,1010.53
2018-12-18T03:12:18.014Z,1010.56
2018-12-18T03:13:18.000Z,1010.54
2018-12-18T03:14:17.993Z,1010.54
2018-12-18T03:15:17.982Z,1010.52
2018-12-18T03:16:17.974Z,1010.49
2018-12-18T03:17:17.959Z,1010.52
2018-12-18T03:18:17.953Z,1010.47
2018-12-18T03:19:17.942Z,1010.44
2018-12-18T03:20:17.930Z,1010.42
2018-12-18T03:21:17.915Z,1010.37
2018-12-18T03:22:17.907Z,1010.36
2018-12-18T03:23:17.896Z,1010.34
2018-12-18T03:24:17.885Z,1010.32
2018-12-18T03:25:17.872Z,1010.32
2018-12-18T03:26:17.865Z,1010.31
2018-12-18T03:27:17.852Z,1010.35
2018-12-18T03:28:17.844Z,1010.29
2018-12-18T03:29:17.832Z,1010.33
2018-12-18T03:30:17.824Z,1010.26
2018-12-18T03:31:17.811Z,1010.23
2018-12-18T03:32:17.812Z,1010.24
2018-12-18T03:33:17.787Z,1010.21
2018-12-18T03:34:17.778Z,1010.19
2018-12-18T03:35:17.766Z,1010.21
2018-12-18T03:36:17.754Z,1010.20
2018-12-18T03:37:17.745Z,1010.21
2018-12-18T03:38:17.733Z,1010.24
2018-12-18T03:39:17.721Z,1010.19
2018-12-18T03:40:17.715Z,1010.21
2018-12-18T03:41:17.715Z,1010.21
2018-12-18T03:42:17.695Z,1010.16
2018-12-18T03:43:17.680Z,1010.22
2018-12-18T03:44:17.669Z,1010.21
2018-12-18T03:45:17.659Z,1010.18
2018-12-18T03:46:17.648Z,1010.23
2018-12-18T03:47:17.643Z,1010.24
2018-12-18T03:48:17.625Z,1010.26
2018-12-18T03:49:17.624Z,1010.30
2018-12-18T03:50:17.605Z,1010.25
2018-12-18T03:51:17.593Z,1010.32
2018-12-18T03:52:17.585Z,1010.33
2018-12-18T03:53:17.573Z,1010.32
2018-12-18T03:54:17.560Z,1010.42
2018-12-18T03:55:17.555Z,1010.35
2018-12-18T03:56:17.538Z,1010.40
2018-12-18T03:57:17.609Z,1010.39
2018-12-18T03:58:17.516Z,1010.41
2018-12-18T03:59:17.507Z,1010.37
2018-12-18T04:00:17.498Z,1010.39
2018-12-18T04:01:17.484Z,1010.36
2018-12-18T04:02:17.478Z,1010.35
2018-12-18T04:03:17.464Z,1010.33
2018-12-18T04:04:17.451Z,1010.32
2018-12-18T04:05:17.443Z,1010.34
2018-12-18T04:06:17.436Z,1010.34
2018-12-18T04:07:17.420Z,1010.37
2018-12-18T04:08:17.408Z,1010.44
2018-12-18T04:09:17.399Z,1010.45
2018-12-18T04:10:17.397Z,1010.47
2018-12-18T04:11:17.378Z,1010.43
2018-12-18T04:12:17.373Z,1010.50
2018-12-18T04:13:17.356Z,1010.49
2018-12-18T04:14:17.347Z,1010.48
2018-12-18T04:15:17.344Z,1010.49
2018-12-18T04:16:17.326Z,1010.48
2018-12-18T04:17:17.322Z,1010.46
2018-12-18T04:18:17.307Z,1010.50
2018-12-18T04:19:17.300Z,1010.45
2018-12-18T04:20:17.279Z,1010.40
2018-12-18T04:21:17.270Z,1010.44
2018-12-18T04:22:17.263Z,1010.43
2018-12-18T04:23:17.258Z,1010.38
2018-12-18T04:24:17.246Z,1010.35
2018-12-18T04:25:17.237Z,1010.33
2018-12-18T04:26:17.216Z,1010.32
2018-12-18T04:27:17.206Z,1010.36
2018-12-18T04:28:17.196Z,1010.34
2018-12-18T04:29:17.184Z,1010.34
2018-12-18T04:30:17.175Z,1010.36
2018-12-18T04:31:17.164Z,1010.31
2018-12-18T04:32:17.155Z,1010.32
2018-12-18T04:33:17.142Z,1010.37
2018-12-18T04:34:17.131Z,1010.37
2018-12-18T04:35:17.120Z,1010.39
2018-12-18T04:36:17.112Z,1010.44
2018-12-18T04:37:17.100Z,1010.37
2018-12-18T04:38:17.096Z,1010.37
2018-12-18T04:39:17.084Z,1010.34
2018-12-18T04:40:17.109Z,1010.32
2018-12-18T04:41:17.063Z,1010.24
2018-12-18T04:42:17.050Z,1010.24
2018-12-18T04:43:17.036Z,1010.23
2018-12-18T04:44:17.025Z,1010.17
2018-12-18T04:45:17.015Z,1010.19
2018-12-18T04:46:17.001Z,1010.17
2018-12-18T04:47:16.993Z,1010.17
2018-12-18T04:48:16.981Z,1010.15
2018-12-18T04:49:16.971Z,1010.11
2018-12-18T04:50:16.960Z,1010.10
2018-12-18T04:51:16.950Z,1010.07
2018-12-18T04:52:16.940Z,1010.08
2018-12-18T04:53:16.939Z,1010.08
2018-12-18T04:54:16.917Z,1010.03
2018-12-18T04:55:16.913Z,1010.02
2018-12-18T04:56:16.895Z,1009.99
2018-12-18T04:57:16.889Z,1010.04
2018-12-18T04:58:16.877Z,1009.98
2018-12-18T04:59:16.865Z,1009.97
2018-12-18T05:00:16.854Z,1009.95
2018-12-18T05:01:16.843Z,1009.91
2018-12-18T05:02:16.833Z,1009.89
2018-12-18T05:03:16.823Z,1009.87
2018-12-18T05:04:16.810Z,1009.85
2018-12-18T05:05:16.801Z,1009.88
2018-12-18T05:06:16.796Z,1009.79
2018-12-18T05:07:16.781Z,1009.77
2018-12-18T05:08:16.786Z,1009.75
2018-12-18T05:09:16.757Z,1009.75
2018-12-18T05:10:16.745Z,1009.72
2018-12-18T05:11:16.738Z,1009.77
2018-12-18T05:12:16.729Z,1009.74
2018-12-18T05:13:16.715Z,1009.77
2018-12-18T05:14:16.704Z,1009.75
2018-12-18T05:15:16.695Z,1009.70
2018-12-18T05:16:16.682Z,1009.71
2018-12-18T05:17:16.673Z,1009.70
2018-12-18T05:18:16.664Z,1009.71
2018-12-18T05:19:16.650Z,1009.69
2018-12-18T05:20:16.642Z,1009.68
2018-12-18T05:21:16.627Z,1009.75
2018-12-18T05:22:16.619Z,1009.80
2018-12-18T05:23:16.607Z,1009.86
2018-12-18T05:24:16.599Z,1009.83
2018-12-18T05:25:16.656Z,1009.84
2018-12-18T05:26:16.576Z,1009.87
2018-12-18T05:27:16.567Z,1009.86
2018-12-18T05:28:16.554Z,1009.86
2018-12-18T05:29:16.544Z,1009.89
2018-12-18T05:30:16.537Z,1009.94
2018-12-18T05:31:16.524Z,1009.94
2018-12-18T05:32:16.513Z,1009.95
2018-12-18T05:33:16.509Z,1009.97
2018-12-18T05:34:16.491Z,1009.97
2018-12-18T05:35:16.479Z,1009.95
2018-12-18T05:36:16.470Z,1009.96
2018-12-18T05:37:16.459Z,1009.99
2018-12-18T05:38:16.446Z,1009.95
2018-12-18T05:39:16.435Z,1009.92
2018-12-18T05:40:16.425Z,1009.95
2018-12-18T05:41:16.414Z,1009.95
2018-12-18T05:42:16.405Z,1009.89
2018-12-18T05:43:16.395Z,1009.92
2018-12-18T05:44:16.384Z,1009.93
2018-12-18T05:45:16.373Z,1009.88
2018-12-18T05:46:16.361Z,1009.88
2018-12-18T05:47:16.350Z,1009.97
2018-12-18T05:48:16.339Z,1009.94
2018-12-18T05:49:16.338Z,1009.99
2018-12-18T05:50:16.323Z,1009.95
2018-12-18T05:51:16.307Z,1009.94
2018-12-18T05:52:16.295Z,1009.99
2018-12-18T05:53:16.286Z,1009.98
2018-12-18T05:54:16.274Z,1009.96
2018-12-18T05:55:16.265Z,1010.02
2018-12-18T05:56:16.256Z,1010.07
2018-12-18T05:57:16.243Z,1010.08
2018-12-18T05:58:16.234Z,1010.07
2018-12-18T05:59:16.221Z,1010.05
2018-12-18T06:00:16.212Z,1010.05
2018-12-18T06:01:16.199Z,1010.06
2018-12-18T06:02:16.194Z,1010.10
2018-12-18T06:03:16.181Z,1010.05
2018-12-18T06:04:16.168Z,1010.04
2018-12-18T06:05:16.156Z,1010.04
2018-12-18T06:06:16.152Z,1010.02
2018-12-18T06:07:16.137Z,1010.04
2018-12-18T06:08:16.124Z,1010.02
2018-12-18T06:09:16.117Z,1010.06
2018-12-18T06:10:16.102Z,1010.08
2018-12-18T06:11:16.092Z,1010.07
2018-12-18T06:12:16.081Z,1010.08
2018-12-18T06:13:16.073Z,1010.11
2018-12-18T06:14:16.059Z,1010.08
2018-12-18T06:15:16.053Z,1010.07
2018-12-18T06:16:16.040Z,1010.11
2018-12-18T06:17:16.029Z,1010.14
2018-12-18T06:18:16.019Z,1010.13
2018-12-18T06:19:16.008Z,1010.12
2018-12-18T06:20:15.999Z,1010.09
2018-12-18T06:21:15.985Z,1010.11
2018-12-18T06:22:15.976Z,1010.11
2018-12-18T06:23:15.964Z,1010.10
2018-12-18T06:24:16.024Z,1010.09
2018-12-18T06:25:16.578Z,1010.11
2018-12-18T06:26:15.932Z,1010.07
2018-12-18T06:27:15.928Z,1010.06
2018-12-18T06:28:15.913Z,1010.09
2018-12-18T06:29:15.899Z,1010.04
2018-12-18T06:30:15.887Z,1010.03
2018-12-18T06:31:15.879Z,1010.04
2018-12-18T06:32:15.868Z,1010.02
2018-12-18T06:33:15.854Z,1010.01
2018-12-18T06:34:15.848Z,1010.03
2018-12-18T06:35:15.858Z,1010.04
2018-12-18T06:36:15.825Z,1010.08
2018-12-18T06:37:15.812Z,1010.17
2018-12-18T06:38:15.802Z,1010.09
2018-12-18T06:39:15.792Z,1010.13
2018-12-18T06:40:15.784Z,1010.15
2018-12-18T06:41:15.775Z,1010.12
2018-12-18T06:42:15.762Z,1010.10
2018-12-18T06:43:15.752Z,1010.10
2018-12-18T06:44:15.738Z,1010.09
2018-12-18T06:45:15.728Z,1010.11
2018-12-18T06:46:15.721Z,1010.11
2018-12-18T06:47:15.707Z,1010.12
2018-12-18T06:48:15.698Z,1010.11
2018-12-18T06:49:15.686Z,1010.11
2018-12-18T06:50:15.678Z,1010.07
2018-12-18T06:51:15.666Z,1010.07
2018-12-18T06:52:15.653Z,1010.09
2018-12-18T06:53:15.640Z,1010.08
2018-12-18T06:54:15.634Z,1010.07
2018-12-18T06:55:15.619Z,1010.10
2018-12-18T06:56:15.611Z,1010.10
2018-12-18T06:57:15.600Z,1010.06
2018-12-18T06:58:15.590Z,1010.04
2018-12-18T06:59:15.580Z,1010.07
2018-12-18T07:00:15.572Z,1010.04
2018-12-18T07:01:15.558Z,1010.07
2018-12-18T07:02:15.547Z,1010.03
2018-12-18T07:03:15.533Z,1009.99
2018-12-18T07:04:15.535Z,1010.07
2018-12-18T07:05:16.939Z,1009.95
2018-12-18T07:06:15.505Z,1009.93
2018-12-18T07:07:15.491Z,1009.96
2018-12-18T07:08:15.482Z,1009.96
2018-12-18T07:09:15.470Z,1010.00
2018-12-18T07:10:15.459Z,1010.00
2018-12-18T07:11:15.447Z,1009.96
2018-12-18T07:12:15.441Z,1009.98
2018-12-18T07:13:15.434Z,1009.98
2018-12-18T07:14:15.417Z,1009.99
2018-12-18T07:15:15.405Z,1010.02
2018-12-18T07:16:15.393Z,1009.97
2018-12-18T07:17:15.383Z,1010.04
2018-12-18T07:18:15.373Z,1010.01
2018-12-18T07:19:15.362Z,1010.03
2018-12-18T07:20:15.351Z,1010.07
2018-12-18T07:21:15.341Z,1010.07
2018-12-18T07:22:15.333Z,1010.12
2018-12-18T07:23:15.320Z,1010.09
2018-12-18T07:24:15.310Z,1010.11
2018-12-18T07:25:15.299Z,1010.12
2018-12-18T07:26:15.286Z,1010.08
2018-12-18T07:27:15.278Z,1010.12
2018-12-18T07:28:15.263Z,1010.12
2018-12-18T07:29:15.253Z,1010.14
2018-12-18T07:30:15.245Z,1010.09
2018-12-18T07:31:15.233Z,1010.10
2018-12-18T07:32:15.224Z,1010.09
2018-12-18T07:33:15.210Z,1010.06
2018-12-18T07:34:15.200Z,1010.07
2018-12-18T07:35:15.193Z,1010.03
2018-12-18T07:36:15.182Z,1010.02
2018-12-18T07:37:15.168Z,1010.03
2018-12-18T07:38:15.158Z,1010.04
2018-12-18T07:39:15.145Z,1010.02
2018-12-18T07:40:15.140Z,1009.99
2018-12-18T07:41:15.124Z,1009.96
2018-12-18T07:42:15.114Z,1009.97
2018-12-18T07:43:15.106Z,1009.90
2018-12-18T07:44:15.097Z,1009.91
2018-12-18T07:45:15.082Z,1009.91
2018-12-18T07:46:15.071Z,1009.93
2018-12-18T07:47:15.063Z,1009.94
2018-12-18T07:48:15.053Z,1009.87
2018-12-18T07:49:15.043Z,1009.82
2018-12-18T07:50:15.027Z,1009.85
2018-12-18T07:51:15.020Z,1009.80
2018-12-18T07:52:15.012Z,1009.75
2018-12-18T07:53:15.007Z,1009.71
2018-12-18T07:54:15.003Z,1009.71
2018-12-18T07:55:14.989Z,1009.67
2018-12-18T07:56:14.976Z,1009.63
2018-12-18T07:57:14.965Z,1009.59
2018-12-18T07:58:14.963Z,1009.58
2018-12-18T07:59:14.929Z,1009.57
2018-12-18T08:00:14.922Z,1009.52
2018-12-18T08:01:14.909Z,1009.53
2018-12-18T08:02:14.917Z,1009.51
2018-12-18T08:03:14.890Z,1009.46
2018-12-18T08:04:14.894Z,1009.46
2018-12-18T08:05:14.976Z,1009.41
2018-12-18T08:06:14.895Z,1009.47
2018-12-18T08:07:14.855Z,1009.39
2018-12-18T08:08:14.888Z,1009.33
2018-12-18T08:09:14.823Z,1009.42
2018-12-18T08:10:14.812Z,1009.32
2018-12-18T08:11:14.803Z,1009.31
2018-12-18T08:12:14.792Z,1009.32
2018-12-18T08:13:14.780Z,1009.34
2018-12-18T08:14:14.777Z,1009.35
2018-12-18T08:15:14.759Z,1009.39
2018-12-18T08:16:14.749Z,1009.37
2018-12-18T08:17:14.738Z,1009.34
2018-12-18T08:18:14.728Z,1009.26
2018-12-18T08:19:14.720Z,1009.27
2018-12-18T08:20:14.726Z,1009.25
2018-12-18T08:21:14.695Z,1009.28
2018-12-18T08:22:14.682Z,1009.26
2018-12-18T08:23:14.673Z,1009.25
2018-12-18T08:24:14.660Z,1009.24
2018-12-18T08:25:14.650Z,1009.22
2018-12-18T08:26:14.639Z,1009.19
2018-12-18T08:27:14.628Z,1009.25
2018-12-18T08:28:14.616Z,1009.22
2018-12-18T08:29:14.611Z,1009.21
2018-12-18T08:30:14.601Z,1009.22
2018-12-18T08:31:14.584Z,1009.25
2018-12-18T08:32:14.578Z,1009.29
2018-12-18T08:33:14.563Z,1009.28
2018-12-18T08:34:14.555Z,1009.27
2018-12-18T08:35:14.545Z,1009.32
2018-12-18T08:36:14.529Z,1009.20
2018-12-18T08:37:14.526Z,1009.24
2018-12-18T08:38:14.510Z,1009.22
2018-12-18T08:39:14.497Z,1009.23
2018-12-18T08:40:14.497Z,1009.23
2018-12-18T08:41:14.477Z,1009.24
2018-12-18T08:42:14.465Z,1009.27
2018-12-18T08:43:14.453Z,1009.22
2018-12-18T08:44:14.445Z,1009.32
2018-12-18T08:45:14.432Z,1009.31
2018-12-18T08:46:14.422Z,1009.30
2018-12-18T08:47:14.409Z,1009.24
2018-12-18T08:48:14.399Z,1009.26
2018-12-18T08:49:14.390Z,1009.32
2018-12-18T08:50:14.379Z,1009.36
2018-12-18T08:51:14.368Z,1009.32
2018-12-18T08:52:14.360Z,1009.37
2018-12-18T08:53:14.351Z,1009.34
2018-12-18T08:54:14.333Z,1009.35
2018-12-18T08:55:14.323Z,1009.26
2018-12-18T08:56:14.310Z,1009.32
2018-12-18T08:57:14.302Z,1009.37
2018-12-18T08:58:14.291Z,1009.36
2018-12-18T08:59:14.283Z,1009.42
2018-12-18T09:00:14.267Z,1009.42
2018-12-18T09:01:14.259Z,1009.44
2018-12-18T09:02:14.246Z,1009.46
2018-12-18T09:03:14.235Z,1009.39
2018-12-18T09:04:14.227Z,1009.42
2018-12-18T09:05:14.220Z,1009.38
2018-12-18T09:06:14.206Z,1009.33
2018-12-18T09:07:14.194Z,1009.24
2018-12-18T09:08:14.183Z,1009.22
2018-12-18T09:09:14.173Z,1009.16
2018-12-18T09:10:14.160Z,1009.12
2018-12-18T09:11:14.149Z,1009.12
2018-12-18T09:12:14.140Z,1009.16
2018-12-18T09:13:14.129Z,1009.14
2018-12-18T09:14:14.118Z,1009.12
2018-12-18T09:15:14.106Z,1009.10
2018-12-18T09:16:14.095Z,1009.07
2018-12-18T09:17:14.087Z,1009.07
2018-12-18T09:18:14.073Z,1009.06
2018-12-18T09:19:14.067Z,1009.11
2018-12-18T09:20:14.051Z,1009.07
2018-12-18T09:21:14.039Z,1009.07
2018-12-18T09:22:14.031Z,1009.11
2018-12-18T09:23:14.024Z,1009.06
2018-12-18T09:24:14.007Z,1009.02
2018-12-18T09:25:13.999Z,1009.01
2018-12-18T09:26:13.991Z,1008.99
2018-12-18T09:27:13.979Z,1008.98
2018-12-18T09:28:13.965Z,1008.99
2018-12-18T09:29:13.959Z,1008.95
2018-12-18T09:30:13.945Z,1008.89
2018-12-18T09:31:13.935Z,1008.93
2018-12-18T09:32:13.923Z,1009.01
2018-12-18T09:33:13.913Z,1008.99
2018-12-18T09:34:13.905Z,1009.08
2018-12-18T09:35:13.892Z,1008.98
2018-12-18T09:36:13.881Z,1009.01
2018-12-18T09:37:13.874Z,1009.07
2018-12-18T09:38:13.859Z,1009.03
2018-12-18T09:39:13.851Z,1008.98
2018-12-18T09:40:13.839Z,1008.98
2018-12-18T09:41:13.827Z,1008.98
2018-12-18T09:42:13.815Z,1008.97
2018-12-18T09:43:13.808Z,1008.96
2018-12-18T09:44:13.797Z,1008.93
2018-12-18T09:45:13.783Z,1008.95
2018-12-18T09:46:13.772Z,1008.93
2018-12-18T09:47:13.768Z,1008.95
2018-12-18T09:48:13.752Z,1008.95
2018-12-18T09:49:13.743Z,1008.88
2018-12-18T09:50:13.735Z,1008.86
2018-12-18T09:51:13.719Z,1008.83
2018-12-18T09:52:13.708Z,1008.80
2018-12-18T09:53:13.700Z,1008.77
2018-12-18T09:54:13.691Z,1008.71
2018-12-18T09:55:13.678Z,1008.69
2018-12-18T09:56:13.668Z,1008.63
2018-12-18T09:57:13.654Z,1008.65
2018-12-18T09:58:13.646Z,1008.60
2018-12-18T09:59:13.634Z,1008.63
2018-12-18T10:00:13.624Z,1008.67
2018-12-18T10:01:13.615Z,1008.65
2018-12-18T10:02:13.601Z,1008.60
2018-12-18T10:03:13.591Z,1008.60
2018-12-18T10:04:13.580Z,1008.60
2018-12-18T10:05:13.569Z,1008.55
2018-12-18T10:06:13.559Z,1008.50
2018-12-18T10:07:13.547Z,1008.48
2018-12-18T10:08:13.538Z,1008.45
2018-12-18T10:09:13.527Z,1008.40
2018-12-18T10:10:13.519Z,1008.41
2018-12-18T10:11:13.505Z,1008.43
2018-12-18T10:12:13.494Z,1008.44
2018-12-18T10:13:13.482Z,1008.42
2018-12-18T10:14:13.472Z,1008.34
2018-12-18T10:15:13.464Z,1008.37
2018-12-18T10:16:13.454Z,1008.36
2018-12-18T10:17:13.442Z,1008.32
2018-12-18T10:18:13.431Z,1008.29
2018-12-18T10:19:13.420Z,1008.29
2018-12-18T10:20:13.409Z,1008.32
2018-12-18T10:21:13.404Z,1008.32
2018-12-18T10:22:13.388Z,1008.36
2018-12-18T10:23:13.377Z,1008.45
2018-12-18T10:24:13.364Z,1008.46
2018-12-18T10:25:13.361Z,1008.46
2018-12-18T10:26:13.347Z,1008.43
2018-12-18T10:27:13.332Z,1008.36
2018-12-18T10:28:13.376Z,1008.38
2018-12-18T10:29:13.309Z,1008.30
2018-12-18T10:30:13.300Z,1008.33
2018-12-18T10:31:13.288Z,1008.37
2018-12-18T10:32:13.277Z,1008.31
2018-12-18T10:33:13.268Z,1008.34
2018-12-18T10:34:13.259Z,1008.32
2018-12-18T10:35:13.252Z,1008.22
2018-12-18T10:36:13.236Z,1008.24
2018-12-18T10:37:13.226Z,1008.23
2018-12-18T10:38:13.212Z,1008.21
2018-12-18T10:39:13.227Z,1008.17
2018-12-18T10:40:13.192Z,1008.13
2018-12-18T10:41:13.180Z,1008.07
2018-12-18T10:42:13.175Z,1008.09
2018-12-18T10:43:13.161Z,1008.09
2018-12-18T10:44:13.147Z,1008.00
2018-12-18T10:45:13.876Z,1007.98
2018-12-18T10:46:13.124Z,1007.97
2018-12-18T10:47:13.120Z,1007.94
2018-12-18T10:48:13.103Z,1007.94
2018-12-18T10:49:13.094Z,1007.92
2018-12-18T10:50:13.082Z,1007.91
2018-12-18T10:51:13.074Z,1007.95
2018-12-18T10:52:13.060Z,1008.01
2018-12-18T10:53:13.051Z,1007.98
2018-12-18T10:54:13.037Z,1008.01
2018-12-18T10:55:13.026Z,1007.92
2018-12-18T10:56:13.017Z,1007.88
2018-12-18T10:57:13.006Z,1007.83
2018-12-18T10:58:12.996Z,1007.82
2018-12-18T10:59:12.986Z,1007.74
2018-12-18T11:00:12.973Z,1007.77
2018-12-18T11:01:12.962Z,1007.73
2018-12-18T11:02:12.955Z,1007.70
2018-12-18T11:03:12.940Z,1007.67
2018-12-18T11:04:12.930Z,1007.61
2018-12-18T11:05:12.917Z,1007.58
2018-12-18T11:06:12.906Z,1007.55
2018-12-18T11:07:12.897Z,1007.54
2018-12-18T11:08:12.887Z,1007.58
2018-12-18T11:09:12.879Z,1007.47
2018-12-18T11:10:12.862Z,1007.39
2018-12-18T11:11:12.853Z,1007.39
2018-12-18T11:12:12.844Z,1007.40
2018-12-18T11:13:12.830Z,1007.33
2018-12-18T11:14:12.826Z,1007.30
2018-12-18T11:15:12.809Z,1007.29
2018-12-18T11:16:12.799Z,1007.22
2018-12-18T11:17:12.789Z,1007.22
2018-12-18T11:18:12.776Z,1007.20
2018-12-18T11:19:12.765Z,1007.21
2018-12-18T11:20:12.755Z,1007.17
2018-12-18T11:21:12.744Z,1007.11
2018-12-18T11:22:12.732Z,1007.08
2018-12-18T11:23:12.722Z,1007.08
2018-12-18T11:24:12.712Z,1007.08
2018-12-18T11:25:12.701Z,1007.06
2018-12-18T11:26:12.686Z,1007.05
2018-12-18T11:27:12.679Z,1006.99
2018-12-18T11:28:12.669Z,1006.94
2018-12-18T11:29:12.668Z,1006.89
2018-12-18T11:30:12.644Z,1006.90
2018-12-18T11:31:12.634Z,1006.95
2018-12-18T11:32:12.622Z,1006.92
2018-12-18T11:33:12.618Z,1006.93
2018-12-18T11:34:12.603Z,1006.89
2018-12-18T11:35:12.588Z,1006.80
2018-12-18T11:36:16.496Z,1006.80
2018-12-18T11:37:12.589Z,1006.81
2018-12-18T11:38:12.557Z,1006.87
2018-12-18T11:39:12.547Z,1006.81
2018-12-18T11:40:12.536Z,1006.85
2018-12-18T11:41:12.525Z,1006.89
2018-12-18T11:42:12.511Z,1006.83
2018-12-18T11:43:12.506Z,1006.91
2018-12-18T11:44:12.496Z,1006.79
2018-12-18T11:45:12.481Z,1006.73
2018-12-18T11:46:12.467Z,1006.76
2018-12-18T11:47:12.456Z,1006.72
2018-12-18T11:48:12.445Z,1006.78
2018-12-18T11:49:12.436Z,1006.74
2018-12-18T11:50:12.428Z,1006.75
2018-12-18T11:51:12.414Z,1006.75
2018-12-18T11:52:12.402Z,1006.75
2018-12-18T11:53:12.390Z,1006.77
2018-12-18T11:54:12.380Z,1006.73
2018-12-18T11:55:12.371Z,1006.70
2018-12-18T11:56:12.359Z,1006.76
2018-12-18T11:57:12.347Z,1006.70
2018-12-18T11:58:12.342Z,1006.69
2018-12-18T11:59:12.329Z,1006.72
2018-12-18T12:00:12.315Z,1006.71
2018-12-18T12:01:12.303Z,1006.63
2018-12-18T12:02:12.295Z,1006.57
2018-12-18T12:03:12.282Z,1006.57
2018-12-18T12:04:12.272Z,1006.51
2018-12-18T12:05:12.261Z,1006.58